createdAt,value
2024-05-09T10:01:44.107Z,998
2024-05-09T10:13:46.033Z,839.5
2024-05-09T10:15:29.382Z,828.7
2024-05-09T10:17:11.370Z,821.4
2024-05-09T10:18:54.892Z,813.4
2024-05-09T10:20:38.457Z,806.2
2024-05-09T10:22:21.844Z,801.1
2024-05-09T10:24:05.193Z,792.4
2024-05-09T10:25:48.591Z,787.2
2024-05-09T10:27:32.118Z,781.2
2024-05-09T10:29:15.478Z,784.3
2024-05-09T10:30:58.834Z,793.3
2024-05-09T10:34:25.423Z,787.9
2024-05-09T10:36:08.640Z,780
2024-05-09T10:37:52.056Z,781.6
2024-05-09T10:39:35.506Z,785
2024-05-09T10:41:19.004Z,783.4
2024-05-09T10:43:02.248Z,785.7
2024-05-09T10:44:45.686Z,789.3
2024-05-09T10:48:12.129Z,810
2024-05-09T10:49:55.509Z,817.2
2024-05-09T10:51:38.962Z,824
2024-05-09T10:53:22.302Z,829.8
2024-05-09T10:55:05.695Z,835.1
2024-05-09T10:56:49.095Z,835.7
2024-05-09T10:58:32.514Z,837.2
2024-05-09T11:01:58.959Z,839.3
2024-05-09T11:03:42.394Z,838.4
2024-05-09T11:05:25.840Z,839
2024-05-09T11:07:09.156Z,839.3
2024-05-09T11:08:52.538Z,835.8
2024-05-09T11:10:35.958Z,830.8
2024-05-09T11:12:19.358Z,831.2
2024-05-09T11:15:45.874Z,828.8
2024-05-09T11:17:29.220Z,826.5
2024-05-09T11:19:12.640Z,823.2
2024-05-09T11:20:55.997Z,824.8
2024-05-09T11:22:39.407Z,828
2024-05-09T11:24:22.811Z,838.1
2024-05-09T11:26:06.198Z,848.8
2024-05-09T11:27:50.029Z,853.4
2024-05-09T11:29:33.304Z,857.6
2024-05-09T11:31:16.723Z,862.6
2024-05-09T11:33:00.107Z,869.2
2024-05-09T11:34:43.558Z,872.5
2024-05-09T11:36:26.980Z,873.7
2024-05-09T11:38:10.317Z,874.2
2024-05-09T11:41:36.804Z,873.1
2024-05-09T11:43:20.173Z,871.4
2024-05-09T11:45:03.558Z,868.1
2024-05-09T11:46:46.975Z,867.2
2024-05-09T11:48:30.332Z,866.4
2024-05-09T11:50:13.741Z,866
2024-05-09T11:51:57.143Z,868.1
2024-05-09T11:55:23.620Z,888.2
2024-05-09T11:57:07.059Z,892.3
2024-05-09T11:58:50.411Z,904.1
2024-05-09T12:00:33.792Z,916.4
2024-05-09T12:02:17.205Z,927.4
2024-05-09T12:04:00.599Z,938.5
2024-05-09T12:05:43.987Z,1014.5
2024-05-09T12:07:27.708Z,1013.4
2024-05-09T12:09:11.097Z,1017.7
2024-05-09T12:10:54.494Z,1010.7
2024-05-09T12:12:37.881Z,997.5
2024-05-09T12:14:21.280Z,987.7
2024-05-09T12:16:04.892Z,975.6
2024-05-09T12:17:48.097Z,966.6
2024-05-09T12:21:14.567Z,953.6
2024-05-09T12:22:57.972Z,952.4
2024-05-09T12:24:41.332Z,952.3
2024-05-09T12:26:24.806Z,950.7
2024-05-09T12:28:08.151Z,948.5
2024-05-09T12:29:51.544Z,946.1
2024-05-09T12:31:34.932Z,946.6
2024-05-09T12:33:18.651Z,945.7
2024-05-09T12:35:02.043Z,947.2
2024-05-09T12:38:28.864Z,946.4
2024-05-09T12:40:12.226Z,944.6
2024-05-09T12:41:55.629Z,945.3
2024-05-09T12:43:39.031Z,944.5
2024-05-09T12:47:05.511Z,950.7
2024-05-09T12:48:48.879Z,968.2
2024-05-09T12:50:32.290Z,985.7
2024-05-09T12:52:15.687Z,1003.2
2024-05-09T12:53:59.085Z,1019.4
2024-05-09T12:55:43.255Z,1035
2024-05-09T12:57:25.941Z,1050.1
2024-05-09T12:59:09.644Z,1067.4
2024-05-09T13:00:52.996Z,1101.8
2024-05-09T13:02:36.401Z,1097.5
2024-05-09T13:04:19.781Z,1088.6
2024-05-09T13:06:03.159Z,1082.3
2024-05-09T13:07:46.559Z,1078.4
2024-05-09T13:09:30.013Z,1070.1
2024-05-09T13:12:56.461Z,1057.2
2024-05-09T13:14:41.007Z,1061.1
2024-05-09T13:16:23.442Z,1062.1
2024-05-09T13:18:06.650Z,1053.8
2024-05-09T13:19:50.102Z,1051.6
2024-05-09T13:21:33.452Z,1055.4
2024-05-09T13:23:16.808Z,1058.4
2024-05-09T13:25:00.536Z,1062.3
2024-05-09T13:26:43.924Z,1061.8
2024-05-09T13:28:27.498Z,1059.7
2024-05-09T13:30:10.720Z,1056.8
2024-05-09T13:31:54.145Z,1056.3
2024-05-09T13:33:37.587Z,1054
2024-05-09T13:35:20.909Z,1053.2
2024-05-09T13:38:47.418Z,1044.9
2024-05-09T13:40:30.807Z,1039.7
2024-05-09T13:42:14.178Z,1034.2
2024-05-09T13:43:57.579Z,1030.7
2024-05-09T13:45:40.978Z,1025.1
2024-05-09T13:47:24.406Z,950.5
2024-05-09T13:49:07.826Z,883.3
2024-05-09T13:52:34.248Z,878.3
2024-05-09T13:54:17.632Z,878.4
2024-05-09T13:56:01.039Z,878
2024-05-09T13:57:44.429Z,887.7
2024-05-09T13:59:27.862Z,901.3
2024-05-09T14:01:11.237Z,909
2024-05-09T14:02:54.608Z,917.1
2024-05-09T14:06:21.257Z,964.7
2024-05-09T14:08:04.517Z,1004.3
2024-05-09T14:09:47.883Z,996.4
2024-05-09T14:11:31.377Z,985.8
2024-05-09T14:13:14.793Z,979.5
2024-05-09T14:14:58.090Z,976.6
2024-05-09T14:16:41.464Z,975.7
2024-05-09T14:20:07.935Z,982.1
2024-05-09T14:21:51.341Z,987.3
2024-05-09T14:23:34.776Z,991
2024-05-09T14:25:18.131Z,985.5
2024-05-09T14:27:01.562Z,976.3
2024-05-09T14:28:45.041Z,966.8
2024-05-09T14:30:28.327Z,957.6
2024-05-09T14:33:54.949Z,954.4
2024-05-09T14:35:38.234Z,951.3
2024-05-09T14:37:21.637Z,951.6
2024-05-09T14:39:05.079Z,951.4
2024-05-09T14:40:48.400Z,951.6
2024-05-09T14:42:31.784Z,951.7
2024-05-09T14:44:15.277Z,954.1
2024-05-09T14:45:59.065Z,957.6
2024-05-09T14:47:42.302Z,959.6
2024-05-09T14:49:25.707Z,957.4
2024-05-09T14:51:09.073Z,960
2024-05-09T14:52:52.476Z,965.7
2024-05-09T14:54:35.885Z,968.7
2024-05-09T14:56:19.287Z,973.1
2024-05-09T14:58:02.986Z,974.1
2024-05-09T14:59:46.367Z,978
2024-05-09T15:01:29.978Z,981
2024-05-09T15:03:13.258Z,985.1
2024-05-09T15:04:56.559Z,984.8
2024-05-09T15:06:40.096Z,985.3
2024-05-09T15:08:23.426Z,986.2
2024-05-09T15:11:50.156Z,993.1
2024-05-09T15:13:33.241Z,996.4
2024-05-09T15:15:16.622Z,997.5
2024-05-09T15:17:00.011Z,998.4
2024-05-09T15:18:43.422Z,1000.2
2024-05-09T15:20:26.817Z,1004.1
2024-05-09T15:22:10.221Z,1010.1
2024-05-09T15:25:36.719Z,1019.8
2024-05-09T15:27:20.115Z,1025.3
2024-05-09T15:29:03.488Z,1028
2024-05-09T15:30:46.999Z,1031.3
2024-05-09T15:34:13.760Z,1038.1
2024-05-09T15:35:57.082Z,1040.3
2024-05-09T15:39:23.535Z,1049.9
2024-05-09T15:41:06.944Z,1054.2
2024-05-09T15:42:50.409Z,1055.7
2024-05-09T15:44:33.742Z,1061.1
2024-05-09T15:46:17.130Z,1066.1
2024-05-09T15:48:00.522Z,1072.4
2024-05-09T15:49:43.963Z,1076
2024-05-09T15:51:27.654Z,1078.9
2024-05-09T15:53:11.106Z,1081
2024-05-09T15:54:54.413Z,1080.2
2024-05-09T15:56:37.901Z,1083.5
2024-05-09T15:58:21.259Z,1085.8
2024-05-09T16:00:04.613Z,1088.3
2024-05-09T16:01:48.105Z,1094.6
2024-05-09T16:05:14.587Z,1100.5
2024-05-09T16:06:58.054Z,1099.6
2024-05-09T16:08:41.286Z,1103.1
2024-05-09T16:10:24.694Z,1107.6
2024-05-09T16:12:08.134Z,1116.4
2024-05-09T16:13:51.470Z,1120.6
2024-05-09T16:15:34.865Z,1127
2024-05-09T16:17:18.633Z,1137
2024-05-09T16:19:02.034Z,1145.3
2024-05-09T16:20:45.465Z,1150.6
2024-05-09T16:22:28.752Z,1151.2
2024-05-09T16:24:12.210Z,1153.2
2024-05-09T16:25:55.610Z,1159.3
2024-05-09T16:27:39.066Z,1163.6
2024-05-09T16:31:05.427Z,1179.3
2024-05-09T16:32:48.826Z,1184.1
2024-05-09T16:34:32.232Z,1188.8
2024-05-09T16:36:15.630Z,1196.1
2024-05-09T16:37:59.005Z,1205.7
2024-05-09T16:39:42.419Z,1209.2
2024-05-09T16:41:25.793Z,1214.5
2024-05-09T16:43:09.513Z,1221.3
2024-05-09T16:44:52.895Z,1227
2024-05-09T16:46:36.331Z,1236.6
2024-05-09T16:48:19.703Z,1242.5
2024-05-09T16:50:03.097Z,1249.1
2024-05-09T16:51:46.497Z,1255.8
2024-05-09T16:53:29.885Z,1264.3
2024-05-09T16:56:56.352Z,1270.7
2024-05-09T16:58:39.752Z,1280.5
2024-05-09T17:00:23.186Z,1290.3
2024-05-09T17:02:06.544Z,1296.5
2024-05-09T17:03:49.949Z,1299.5
2024-05-09T17:05:34.036Z,1305.2
2024-05-09T17:07:16.750Z,1310.8
2024-05-09T17:10:43.234Z,1323.1
2024-05-09T17:12:26.806Z,1327.2
2024-05-09T17:14:10.050Z,1332.5
2024-05-09T17:15:53.412Z,1341.5
2024-05-09T17:17:36.788Z,1348.7
2024-05-09T17:19:20.196Z,1354.6
2024-05-09T17:21:03.582Z,1365
2024-05-09T17:22:47.414Z,1375.4
2024-05-09T17:24:31.023Z,1379.3
2024-05-09T17:26:14.087Z,1381
2024-05-09T17:27:57.500Z,1384.8
2024-05-09T17:29:40.916Z,1387.2
2024-05-09T17:31:24.359Z,1394.4
2024-05-09T17:33:07.734Z,1401.3
2024-05-09T17:36:34.415Z,1415.4
2024-05-09T17:38:17.559Z,1418.6
2024-05-09T17:40:00.983Z,1422.6
2024-05-09T17:41:44.420Z,1424.6
2024-05-09T17:43:27.996Z,1433.7
2024-05-09T17:45:11.146Z,1443
2024-05-09T17:46:54.737Z,1452
2024-05-09T17:50:20.998Z,1467.7
2024-05-09T17:52:04.406Z,1475.3
2024-05-09T17:53:48.019Z,1477.4
2024-05-09T17:55:31.239Z,1479.1
2024-05-09T17:57:14.605Z,1481.8
2024-05-09T17:58:58.092Z,1484.5
2024-05-09T18:00:41.609Z,1487.6
2024-05-09T18:04:08.023Z,1507.7
2024-05-09T18:05:51.272Z,1514.6
2024-05-09T18:07:34.821Z,1520.3
2024-05-09T18:09:18.203Z,1532
2024-05-09T18:11:01.757Z,1549.5
2024-05-09T18:12:44.863Z,1559.2
2024-05-09T18:14:28.241Z,1565.3
2024-05-09T18:17:54.772Z,1582.6
2024-05-09T18:19:38.099Z,1585
2024-05-09T18:21:21.525Z,1592
2024-05-09T18:23:04.939Z,1599
2024-05-09T18:24:48.307Z,1598.6
2024-05-09T18:26:31.700Z,1601.1
2024-05-09T18:28:15.120Z,1626
2024-05-09T18:31:41.580Z,1689.7
2024-05-09T18:33:25.011Z,1693
2024-05-09T18:35:08.381Z,1696.6
2024-05-09T18:36:51.759Z,1710.4
2024-05-09T18:38:35.203Z,1724.5
2024-05-09T18:40:18.550Z,1739.3
2024-05-09T18:42:01.976Z,1765.7
2024-05-09T18:45:28.593Z,1824.6
2024-05-09T18:47:11.929Z,1817.2
2024-05-09T18:48:55.385Z,1805.2
2024-05-09T18:50:38.673Z,1808
2024-05-09T18:52:22.030Z,1814.3
2024-05-09T18:54:05.414Z,1826.8
2024-05-09T18:55:48.939Z,1836.2
2024-05-09T18:59:15.292Z,1845.4
2024-05-09T19:00:58.704Z,1852.4
2024-05-09T19:02:42.092Z,1858
2024-05-09T19:04:25.688Z,1861.5
2024-05-09T19:06:08.943Z,1866.1
2024-05-09T19:07:52.291Z,1868.3
2024-05-09T19:09:35.807Z,1866.6
2024-05-09T19:13:02.148Z,1873.6
2024-05-09T19:14:45.749Z,1881
2024-05-09T19:16:28.941Z,1883.8
2024-05-09T19:18:12.376Z,1883
2024-05-09T19:19:55.740Z,1886.4
2024-05-09T19:21:39.142Z,1894.5
2024-05-09T19:23:22.530Z,1897.8
2024-05-09T19:26:49.013Z,1897.2
2024-05-09T19:28:32.429Z,1896.5
2024-05-09T19:30:15.889Z,1891.8
2024-05-09T19:31:59.214Z,1891
2024-05-09T19:33:42.629Z,1890.2
2024-05-09T19:35:26.020Z,1868.4
2024-05-09T19:37:09.418Z,1017.8
2024-05-09T19:40:36.054Z,643.4
2024-05-09T19:42:26.246Z,643.6
2024-05-09T19:44:02.660Z,658.1
2024-05-09T19:45:46.063Z,679.1
2024-05-09T19:47:29.443Z,698.5
2024-05-09T19:49:12.841Z,696.4
2024-05-09T19:52:39.622Z,711.8
2024-05-09T19:54:23.339Z,725.4
2024-05-09T19:56:06.767Z,742.4
2024-05-09T19:57:50.121Z,759.8
2024-05-09T19:59:33.522Z,775.7
2024-05-09T20:01:16.909Z,787.7
2024-05-09T20:03:00.302Z,798.2
2024-05-09T20:04:43.708Z,801
2024-05-09T20:09:52.958Z,822.5
2024-05-09T20:11:36.358Z,834.7
2024-05-09T20:13:19.772Z,851.3
2024-05-09T20:15:03.155Z,874.5
2024-05-09T20:16:46.553Z,892.4
2024-05-09T20:18:30.979Z,904.4
2024-05-09T20:20:13.337Z,915.7
2024-05-09T20:23:39.807Z,932.4
2024-05-09T20:25:23.201Z,946.4
2024-05-09T20:27:06.606Z,960.8
2024-05-09T20:28:50.000Z,973.7
2024-05-09T20:30:33.499Z,983.1
2024-05-09T20:32:16.784Z,991.5
2024-05-09T20:34:00.189Z,999.2
2024-05-09T20:39:09.440Z,1022.5
2024-05-09T20:40:52.831Z,1027.4
2024-05-09T20:42:36.241Z,1032.1
2024-05-09T20:44:19.612Z,1040.3
2024-05-09T20:46:03.034Z,1042.7
2024-05-09T20:47:46.415Z,1049.3
2024-05-09T20:49:29.813Z,1058.2
2024-05-09T20:52:56.916Z,1072.9
2024-05-09T20:54:40.337Z,1077.6
2024-05-09T20:56:23.760Z,1085.1
2024-05-09T20:58:07.102Z,1091.3
2024-05-09T20:59:50.513Z,1095.8
2024-05-09T21:01:33.894Z,1101
2024-05-09T21:03:17.365Z,1106.6
2024-05-09T21:05:00.696Z,1116.6
2024-05-09T21:06:44.702Z,1127.5
2024-05-09T21:08:28.184Z,1138.1
2024-05-09T21:10:11.419Z,1144.3
2024-05-09T21:11:54.873Z,1151.5
2024-05-09T21:13:38.251Z,1158.5
2024-05-09T21:15:21.753Z,1163
2024-05-09T21:17:04.777Z,1168.5
2024-05-09T21:18:48.203Z,1174.6
2024-05-09T21:20:32.245Z,1180.3
2024-05-09T21:23:58.832Z,1186.8
2024-05-09T21:25:42.398Z,1191.5
2024-05-09T21:27:25.467Z,1191.5
2024-05-09T21:29:08.901Z,1196
2024-05-09T21:30:52.301Z,1197.3
2024-05-09T21:36:01.734Z,1213.7
2024-05-09T21:37:44.962Z,1217.3
2024-05-09T21:39:28.467Z,1224.5
2024-05-09T21:41:11.754Z,1228.7
2024-05-09T21:42:55.118Z,1231.4
2024-05-09T21:44:38.531Z,1232.3
2024-05-09T21:46:21.964Z,1232.5
2024-05-09T21:49:48.380Z,1241
2024-05-09T21:51:31.913Z,1241
2024-05-09T21:53:15.282Z,1240.1
2024-05-09T21:54:58.664Z,1243
2024-05-09T21:56:41.952Z,1248.6
2024-05-09T21:58:25.412Z,1252.8
2024-05-09T22:00:08.832Z,1255.8
2024-05-09T22:05:17.966Z,1261
2024-05-09T22:07:01.412Z,1265.5
2024-05-09T22:08:44.772Z,1273.2
2024-05-09T22:10:28.178Z,1277.1
2024-05-09T22:12:11.577Z,1281.2
2024-05-09T22:13:54.973Z,1282.5
2024-05-09T22:15:38.358Z,1279.6
2024-05-09T22:19:04.883Z,1274.8
2024-05-09T22:20:48.248Z,1275.1
2024-05-09T22:22:31.636Z,1277.8
2024-05-09T22:24:15.037Z,1276.3
2024-05-09T22:25:58.595Z,1276.3
2024-05-09T22:27:41.825Z,1274.8
2024-05-09T22:29:25.322Z,1276.4
2024-05-09T22:34:35.387Z,1276.4
2024-05-09T22:36:18.173Z,1272
2024-05-09T22:38:01.395Z,1272.8
2024-05-09T22:39:44.744Z,1272.7
2024-05-09T22:41:28.224Z,1271.2
2024-05-09T22:43:11.534Z,1270.7
2024-05-09T22:44:54.871Z,1270.4
2024-05-09T22:50:04.121Z,1269.8
2024-05-09T22:51:47.670Z,1265.7
2024-05-09T22:53:30.995Z,1263.4
2024-05-09T22:55:14.310Z,1262.3
2024-05-09T22:56:57.813Z,1261
2024-05-09T22:58:41.311Z,1258.2
2024-05-09T23:00:24.490Z,1259.7
2024-05-09T23:03:51.021Z,1260.9
2024-05-09T23:05:34.517Z,1261.4
2024-05-09T23:07:17.751Z,1260.8
2024-05-09T23:09:01.289Z,1256.2
2024-05-09T23:10:44.732Z,1251.7
2024-05-09T23:12:28.016Z,1252.2
2024-05-09T23:14:11.396Z,1250.7
2024-05-09T23:17:37.974Z,1255.1
2024-05-09T23:19:21.275Z,1254
2024-05-09T23:21:04.692Z,1255
2024-05-09T23:22:48.115Z,1255.2
2024-05-09T23:24:31.436Z,1257.2
2024-05-09T23:26:14.784Z,1254.5
2024-05-09T23:27:58.191Z,1252.6
2024-05-09T23:29:41.630Z,1252.4
2024-05-09T23:31:25.339Z,1253.6
2024-05-09T23:33:08.729Z,1249.8
2024-05-09T23:34:52.076Z,1245.5
2024-05-09T23:36:35.474Z,1238.8
2024-05-09T23:38:18.871Z,1222.1
2024-05-09T23:40:02.279Z,1207.3
2024-05-09T23:41:45.658Z,1198.5
2024-05-09T23:45:12.162Z,1136.3
2024-05-09T23:46:55.599Z,1132
2024-05-09T23:48:38.922Z,1132.1
2024-05-09T23:50:22.334Z,1133
2024-05-09T23:52:05.844Z,1131.4
2024-05-09T23:53:49.135Z,1128.8
2024-05-09T23:55:32.762Z,1125.7
2024-05-09T23:57:15.925Z,1120.5
2024-05-09T23:58:59.623Z,1118.1
